1995 BENTHA (1994365S06063)


On this page: IBTrACS data - Map and Plots - Positions - Intensities - Original source data

Summary

Start Dec 30
End Jan 6
Basin SI
LMI 55 kt
Sources jtwc_sh
reunion
neumann
In WMO? Yes
Previous storm 1995 WILLIAM (SP)
Previous in basin 1995 CHRISTELLE (SI)
Concurrent storms 1995 CHRISTELLE (SI)
1995 WILLIAM (SP)
1995 BENTHA (SI)
1995 TD0108 (EP)
Next in basin 1995 DORINA (SI)
Next storm 1995 TD0108 (EP)

top of page IBTrACS Data: File Access

Image of storm

top of page Plots:

Map of storm track will not appear if FTP is down
Time series of cyclone Maximum Sustained Wind will not appear if FTP is down
Time series of cyclone Minimum Central Pressure will not appear if FTP is down

top of page Track Data:Position

jtwc_sh reunion neumann
Date Lat Lon Lat Lon Lat Lon
1994-12-30 12:00:00 -6.0 63.1 -6.0 63.1
1994-12-30 18:00:00 -6.3 62.6 -6.3 62.6
1994-12-31 00:00:00 -6.7 62.2 -6.7 62.2
1994-12-31 06:00:00 -7.2 61.9 -7.2 61.9
1994-12-31 12:00:00 -7.8 61.7 -7.8 61.7
1994-12-31 18:00:00 -8.4 61.6 -8.4 61.6
1995-01-01 00:00:00 -9.0 61.5 -9.0 61.5
1995-01-01 06:00:00 -9.6 61.3 -9.6 61.3
1995-01-01 12:00:00 -10.1 61.1 -10.1 61.1
1995-01-01 18:00:00 -10.6 61.0 -10.6 61.0
1995-01-02 00:00:00 -11.0 60.8 -11.0 60.8
1995-01-02 06:00:00 -11.3 60.6 -11.5 59.7 -11.3 60.6
1995-01-02 12:00:00 -11.7 60.5 -11.6 59.5 -11.7 60.5
1995-01-02 18:00:00 -12.0 60.3 -11.9 59.5 -12.0 60.3
1995-01-03 00:00:00 -12.4 60.0 -12.4 59.4 -12.4 60.0
1995-01-03 06:00:00 -12.9 59.7 -12.8 59.4 -12.9 59.7
1995-01-03 12:00:00 -13.5 59.5 -13.3 59.3 -13.5 59.5
1995-01-03 18:00:00 -14.1 59.3 -14.0 59.3 -14.1 59.3
1995-01-04 00:00:00 -14.7 59.2 -14.6 59.2 -14.7 59.2
1995-01-04 06:00:00 -15.4 59.2 -15.1 58.9 -15.4 59.2
1995-01-04 12:00:00 -16.0 59.3 -15.7 58.6 -16.0 59.3
1995-01-04 18:00:00 -16.6 59.4 -16.3 58.4 -16.6 59.4
1995-01-05 00:00:00 -17.3 59.3 -17.0 58.1 -17.3 59.3
1995-01-05 06:00:00 -17.9 59.0 -17.5 57.8 -17.9 59.0
1995-01-05 12:00:00 -18.3 58.3 -17.8 57.4 -18.3 58.3
jtwc_sh reunion neumann
1995-01-05 18:00:00 -18.6 57.6 -18.0 57.1 -18.6 57.6
1995-01-06 00:00:00 -18.6 56.7 -18.4 56.4 -18.6 56.7
1995-01-06 06:00:00 -18.4 55.6 -18.3 55.2 -18.4 55.6
1995-01-06 12:00:00 -17.8 54.4 -16.9 54.4 -17.8 54.4
1995-01-06 18:00:00 -15.9 54.5

top of pageTrack Data:Intensity

jtwc_sh reunion neumann
Date Wind Pres Wind Pres Wind Pres
1994-12-30 12:00:00 15. 15.
1994-12-30 18:00:00 15. 15.
1994-12-31 00:00:00 15. 15.
1994-12-31 06:00:00 20. 20.
1994-12-31 12:00:00 20. 20.
1994-12-31 18:00:00 20. 20.
1995-01-01 00:00:00 20. 20.
1995-01-01 06:00:00 20. 20.
1995-01-01 12:00:00 20. 20.
1995-01-01 18:00:00 20. 20.
1995-01-02 00:00:00 25. 25.
1995-01-02 06:00:00 25. 25. 1002. 25.
1995-01-02 12:00:00 25. 28. 998. 25.
1995-01-02 18:00:00 30. 30. 995. 30.
1995-01-03 00:00:00 35. 35. 992. 35.
1995-01-03 06:00:00 40. 40. 988. 40.
1995-01-03 12:00:00 45. 40. 988. 45.
1995-01-03 18:00:00 45. 40. 988. 45.
1995-01-04 00:00:00 45. 45. 984. 45.
1995-01-04 06:00:00 45. 45. 984. 45.
1995-01-04 12:00:00 45. 45. 984. 45.
1995-01-04 18:00:00 50. 45. 984. 50.
1995-01-05 00:00:00 50. 40. 988. 50.
1995-01-05 06:00:00 55. 35. 992. 55.
1995-01-05 12:00:00 55. 35. 992. 55.
jtwc_sh reunion neumann
1995-01-05 18:00:00 50. 35. 992. 50.
1995-01-06 00:00:00 40. 30. 995. 40.
1995-01-06 06:00:00 30. 25. 1000. 30.
1995-01-06 12:00:00 25. 20. 1002. 25.
1995-01-06 18:00:00 1004.

top of page Links to source data

Source Source file Format
jtwc_sh bsh061995.txt ATCF
reunion WMO-Best-Tracks.txt:Line=16804:bentha WMO (old format)
neumann tracks.sh:Storm=1019:BENTHA:BSH061995:JTWC HURDAT